Time;durP1;ratioP1;P1;durP2;ratioP2;P2;SDS_P1;SDS_P2;PMS_P1;PMS_P2;Temp;Humidity;BMP_temperature;BMP_pressure;BME280_temperature;BME280_humidity;BME280_pressure;Samples;Min_cycle;Max_cycle;Signal;HPM_P1;HPM_P2
2024/01/18 00:02:18;;;;;;;15.32;10.00;;;;;;;;;;5260627;28;20052;-74
2024/01/18 00:04:50;;;;;;;16.27;10.00;;;;;;;;;;5260578;28;20116;-74
2024/01/18 00:07:22;;;;;;;16.17;10.17;;;;;;;;;;5259806;28;20029;-76
2024/01/18 00:09:53;;;;;;;14.93;9.47;;;;;;;;;;5261116;28;20109;-75
2024/01/18 00:12:24;;;;;;;15.67;9.13;;;;;;;;;;5260170;28;20126;-75
2024/01/18 00:14:55;;;;;;;12.63;8.37;;;;;;;;;;5259958;28;20035;-75
2024/01/18 00:17:26;;;;;;;12.60;8.43;;;;;;;;;;5259816;28;20107;-75
2024/01/18 00:19:58;;;;;;;17.27;8.73;;;;;;;;;;5260639;28;20506;-75
2024/01/18 00:22:29;;;;;;;14.10;8.20;;;;;;;;;;5259836;28;20460;-76
2024/01/18 00:25:00;;;;;;;14.87;8.57;;;;;;;;;;5260383;28;20078;-75
2024/01/18 00:27:31;;;;;;;11.73;8.10;;;;;;;;;;5260034;28;20020;-74
2024/01/18 00:30:03;;;;;;;13.33;8.13;;;;;;;;;;5259390;28;20103;-75
2024/01/18 00:32:34;;;;;;;13.33;8.27;;;;;;;;;;5260292;28;20013;-75
2024/01/18 00:35:05;;;;;;;13.30;8.87;;;;;;;;;;5259660;28;20044;-75
2024/01/18 00:37:36;;;;;;;13.50;8.83;;;;;;;;;;5259922;28;20025;-75
2024/01/18 00:40:08;;;;;;;12.90;8.43;;;;;;;;;;5260046;28;20104;-75
2024/01/18 00:42:39;;;;;;;13.47;8.57;;;;;;;;;;5259329;28;20475;-75
2024/01/18 00:45:10;;;;;;;12.83;8.60;;;;;;;;;;5242396;28;20119;-75
2024/01/18 00:47:44;;;;;;;14.23;8.63;;;;;;;;;;5259969;28;20060;-75
2024/01/18 00:50:15;;;;;;;12.60;8.37;;;;;;;;;;5259088;28;20028;-75
2024/01/18 00:52:46;;;;;;;11.17;8.67;;;;;;;;;;5259691;28;20033;-74
2024/01/18 00:55:18;;;;;;;12.77;8.90;;;;;;;;;;5260495;28;20070;-74
2024/01/18 00:57:50;;;;;;;14.40;9.17;;;;;;;;;;5259253;28;20025;-74
2024/01/18 01:00:22;;;;;;;12.97;9.27;;;;;;;;;;5260022;28;20024;-74
2024/01/18 01:02:53;;;;;;;12.40;8.57;;;;;;;;;;5262252;28;20036;-73
2024/01/18 01:05:24;;;;;;;13.83;8.90;;;;;;;;;;5263346;28;20159;-73
2024/01/18 01:07:55;;;;;;;17.30;9.98;;;;;;;;;;5263933;28;20108;-73
2024/01/18 01:10:26;;;;;;;14.57;9.37;;;;;;;;;;5262487;28;20021;-73
2024/01/18 01:12:58;;;;;;;13.23;8.70;;;;;;;;;;5263293;28;20074;-73
2024/01/18 01:15:29;;;;;;;12.70;9.03;;;;;;;;;;5263554;28;20473;-74
2024/01/18 01:18:00;;;;;;;12.47;8.73;;;;;;;;;;5262444;28;20029;-73
2024/01/18 01:20:31;;;;;;;12.13;8.27;;;;;;;;;;5263297;28;20032;-74
2024/01/18 01:23:03;;;;;;;11.97;8.70;;;;;;;;;;5263339;28;20029;-74
2024/01/18 01:25:34;;;;;;;13.87;8.87;;;;;;;;;;5262688;28;20096;-73
2024/01/18 01:28:06;;;;;;;14.00;9.27;;;;;;;;;;5263308;28;20043;-73
2024/01/18 01:30:37;;;;;;;14.23;8.90;;;;;;;;;;5263077;28;20009;-74
2024/01/18 01:33:08;;;;;;;11.47;9.17;;;;;;;;;;5262476;28;20036;-75
2024/01/18 01:35:39;;;;;;;13.40;8.27;;;;;;;;;;5263277;28;20040;-74
2024/01/18 01:38:10;;;;;;;14.20;9.80;;;;;;;;;;5262768;28;20029;-74
2024/01/18 01:40:42;;;;;;;12.43;9.27;;;;;;;;;;5262893;28;20133;-74
2024/01/18 01:43:13;;;;;;;12.67;8.67;;;;;;;;;;5263116;28;20155;-74
2024/01/18 01:45:45;;;;;;;13.10;9.20;;;;;;;;;;5261981;28;20020;-73
2024/01/18 01:48:16;;;;;;;14.13;9.77;;;;;;;;;;5262846;28;20040;-73
2024/01/18 01:50:47;;;;;;;11.90;8.30;;;;;;;;;;5262458;28;20049;-73
2024/01/18 01:53:19;;;;;;;11.03;8.77;;;;;;;;;;5261839;28;20436;-73
2024/01/18 01:55:50;;;;;;;15.27;9.40;;;;;;;;;;5262647;28;20052;-74
2024/01/18 01:58:22;;;;;;;14.43;9.93;;;;;;;;;;5262300;28;20476;-74
2024/01/18 02:00:53;;;;;;;12.97;8.87;;;;;;;;;;5262113;28;20017;-74
2024/01/18 02:03:24;;;;;;;14.67;9.60;;;;;;;;;;5262208;28;20143;-73
2024/01/18 02:05:56;;;;;;;15.80;8.80;;;;;;;;;;5262365;28;20021;-74
2024/01/18 02:08:28;;;;;;;14.17;9.10;;;;;;;;;;5261472;28;20491;-74
2024/01/18 02:10:59;;;;;;;11.80;8.67;;;;;;;;;;5262265;28;20442;-74
2024/01/18 02:13:31;;;;;;;13.00;8.70;;;;;;;;;;5261392;28;20231;-74
2024/01/18 02:16:02;;;;;;;14.73;9.43;;;;;;;;;;5262145;28;20013;-73
2024/01/18 02:18:35;;;;;;;12.40;9.37;;;;;;;;;;5262177;28;20035;-73
2024/01/18 02:21:08;;;;;;;13.77;9.20;;;;;;;;;;5261302;28;20036;-75
2024/01/18 02:23:41;;;;;;;14.90;10.00;;;;;;;;;;5261984;28;20472;-74
2024/01/18 02:26:12;;;;;;;12.93;9.60;;;;;;;;;;5262151;28;20460;-74
2024/01/18 02:28:55;;;;;;;13.27;9.53;;;;;;;;;;5261126;28;20095;-74
2024/01/18 02:31:26;;;;;;;13.80;9.03;;;;;;;;;;5261746;28;20025;-74
2024/01/18 02:33:57;;;;;;;13.73;9.10;;;;;;;;;;5261880;28;20021;-75
2024/01/18 02:36:28;;;;;;;14.47;9.27;;;;;;;;;;5260950;28;20047;-74
2024/01/18 02:38:59;;;;;;;15.20;9.97;;;;;;;;;;5261752;28;20013;-74
2024/01/18 02:41:32;;;;;;;14.57;9.57;;;;;;;;;;5261066;28;20106;-74
2024/01/18 02:44:03;;;;;;;13.80;9.17;;;;;;;;;;5261693;28;20017;-74
2024/01/18 02:46:34;;;;;;;16.00;9.30;;;;;;;;;;5261692;28;20487;-75
2024/01/18 02:49:05;;;;;;;15.40;9.53;;;;;;;;;;5260896;28;20100;-74
2024/01/18 02:51:37;;;;;;;13.50;9.47;;;;;;;;;;5261286;28;20103;-74
2024/01/18 02:54:08;;;;;;;13.33;9.20;;;;;;;;;;5261740;28;20499;-74
2024/01/18 02:56:39;;;;;;;17.17;10.80;;;;;;;;;;5260701;28;20039;-73
2024/01/18 02:59:11;;;;;;;14.40;9.67;;;;;;;;;;5261187;28;20017;-73
2024/01/18 03:01:42;;;;;;;13.27;9.40;;;;;;;;;;5260804;28;20104;-73
2024/01/18 03:04:13;;;;;;;14.20;9.10;;;;;;;;;;5260470;28;20551;-73
2024/01/18 03:06:45;;;;;;;14.17;9.20;;;;;;;;;;5261681;28;20047;-73
2024/01/18 03:09:16;;;;;;;11.97;8.80;;;;;;;;;;5261303;28;20071;-73
2024/01/18 03:11:47;;;;;;;15.23;10.10;;;;;;;;;;5260526;28;20079;-73
2024/01/18 03:14:20;;;;;;;12.90;9.07;;;;;;;;;;5261097;28;20028;-73
2024/01/18 03:16:51;;;;;;;15.50;9.33;;;;;;;;;;5260374;28;20024;-73
2024/01/18 03:19:22;;;;;;;13.00;9.43;;;;;;;;;;5260760;28;20460;-74
2024/01/18 03:21:53;;;;;;;16.20;9.88;;;;;;;;;;5261156;28;20029;-73
2024/01/18 03:24:25;;;;;;;16.30;10.07;;;;;;;;;;5259454;28;20023;-73
2024/01/18 03:26:56;;;;;;;14.60;9.65;;;;;;;;;;5260861;28;20036;-73
2024/01/18 03:29:27;;;;;;;15.03;9.03;;;;;;;;;;5260879;28;20463;-73
2024/01/18 03:31:58;;;;;;;13.23;9.33;;;;;;;;;;5260226;28;20020;-73
2024/01/18 03:34:29;;;;;;;11.90;8.53;;;;;;;;;;5260754;28;20013;-73
2024/01/18 03:37:01;;;;;;;14.07;9.00;;;;;;;;;;5260681;28;20028;-73
2024/01/18 03:39:36;;;;;;;14.73;9.27;;;;;;;;;;5259963;28;20476;-73
2024/01/18 03:42:07;;;;;;;14.33;9.27;;;;;;;;;;5260853;28;20435;-73
2024/01/18 03:44:38;;;;;;;14.40;9.13;;;;;;;;;;5259868;28;20105;-74
2024/01/18 03:47:09;;;;;;;15.00;8.90;;;;;;;;;;5260505;28;20025;-73
2024/01/18 03:49:43;;;;;;;12.23;9.30;;;;;;;;;;5260478;28;20500;-73
2024/01/18 03:52:16;;;;;;;14.33;8.77;;;;;;;;;;5259074;28;20049;-73
2024/01/18 03:54:48;;;;;;;11.67;8.27;;;;;;;;;;5260425;28;20053;-73
2024/01/18 03:57:19;;;;;;;11.93;8.60;;;;;;;;;;5260308;28;20063;-73
2024/01/18 03:59:50;;;;;;;13.50;9.17;;;;;;;;;;5259300;28;20052;-73
2024/01/18 04:02:21;;;;;;;13.97;10.00;;;;;;;;;;5259696;28;20056;-74
2024/01/18 04:04:53;;;;;;;13.80;9.63;;;;;;;;;;5260276;28;20033;-73
2024/01/18 04:07:24;;;;;;;15.50;8.37;;;;;;;;;;5259242;28;20013;-73
2024/01/18 04:09:55;;;;;;;12.10;7.87;;;;;;;;;;5260784;28;20025;-73
2024/01/18 04:12:26;;;;;;;14.83;9.20;;;;;;;;;;5260058;28;20028;-73
2024/01/18 04:14:57;;;;;;;13.40;9.23;;;;;;;;;;5259799;28;20461;-73
2024/01/18 04:17:28;;;;;;;15.53;8.77;;;;;;;;;;5260654;28;20109;-73
2024/01/18 04:20:00;;;;;;;13.57;8.50;;;;;;;;;;5259686;28;20431;-72
2024/01/18 04:22:32;;;;;;;14.57;8.30;;;;;;;;;;5260401;28;20044;-73
2024/01/18 04:25:03;;;;;;;14.73;8.23;;;;;;;;;;5260159;28;20021;-73
2024/01/18 04:27:34;;;;;;;11.33;8.20;;;;;;;;;;5259359;28;20095;-74
2024/01/18 04:30:06;;;;;;;14.57;8.57;;;;;;;;;;5260555;28;20020;-73
2024/01/18 04:32:37;;;;;;;13.27;8.27;;;;;;;;;;5260552;28;20013;-73
2024/01/18 04:35:08;;;;;;;14.97;9.43;;;;;;;;;;5259608;28;20029;-73
2024/01/18 04:37:39;;;;;;;14.10;8.03;;;;;;;;;;5264249;28;20021;-74
2024/01/18 04:40:11;;;;;;;11.13;8.27;;;;;;;;;;5264318;28;20559;-73
2024/01/18 04:42:42;;;;;;;13.43;8.67;;;;;;;;;;5263601;28;20055;-73
2024/01/18 04:45:13;;;;;;;15.00;8.80;;;;;;;;;;5264423;28;20025;-74
2024/01/18 04:47:45;;;;;;;10.83;7.27;;;;;;;;;;5263995;28;20108;-74
2024/01/18 04:50:16;;;;;;;10.33;7.97;;;;;;;;;;5263223;28;20464;-74
2024/01/18 04:52:49;;;;;;;11.13;8.23;;;;;;;;;;5263690;28;20072;-74
2024/01/18 04:55:20;;;;;;;14.03;8.17;;;;;;;;;;5263023;28;20021;-73
2024/01/18 04:57:52;;;;;;;12.07;7.37;;;;;;;;;;5264233;28;20379;-74
2024/01/18 05:00:23;;;;;;;11.90;8.07;;;;;;;;;;5263775;28;20017;-74
2024/01/18 05:02:55;;;;;;;12.67;8.00;;;;;;;;;;5263555;28;20026;-74
2024/01/18 05:05:26;;;;;;;15.93;8.63;;;;;;;;;;5263804;28;20093;-73
2024/01/18 05:07:57;;;;;;;13.10;7.33;;;;;;;;;;5263912;28;20025;-73
2024/01/18 05:10:28;;;;;;;12.37;8.07;;;;;;;;;;5262890;28;20037;-73
2024/01/18 05:13:00;;;;;;;10.00;7.20;;;;;;;;;;5263701;28;20025;-73
2024/01/18 05:15:31;;;;;;;11.83;7.80;;;;;;;;;;5263711;28;20044;-73
2024/01/18 05:18:02;;;;;;;12.80;8.50;;;;;;;;;;5263040;28;20100;-73
2024/01/18 05:20:33;;;;;;;11.77;8.13;;;;;;;;;;5263503;28;20092;-73
2024/01/18 05:23:06;;;;;;;12.43;7.87;;;;;;;;;;5262775;28;20037;-73
2024/01/18 05:25:37;;;;;;;15.60;8.00;;;;;;;;;;5263486;28;20380;-73
2024/01/18 05:28:08;;;;;;;12.30;7.73;;;;;;;;;;5263341;28;20075;-73
2024/01/18 05:30:39;;;;;;;12.03;7.73;;;;;;;;;;5262831;28;20528;-73
2024/01/18 05:33:10;;;;;;;10.37;7.50;;;;;;;;;;5263301;28;20132;-73
2024/01/18 05:35:42;;;;;;;10.63;7.37;;;;;;;;;;5263239;28;20059;-73
2024/01/18 05:38:13;;;;;;;13.77;7.50;;;;;;;;;;5262224;28;20025;-73
2024/01/18 05:40:45;;;;;;;10.73;6.80;;;;;;;;;;5263183;28;20033;-73
2024/01/18 05:43:17;;;;;;;11.67;7.50;;;;;;;;;;5263242;28;20079;-73
2024/01/18 05:45:48;;;;;;;11.33;6.57;;;;;;;;;;5262156;28;20037;-74
2024/01/18 05:48:19;;;;;;;11.87;7.50;;;;;;;;;;5262431;28;20111;-73
2024/01/18 05:50:50;;;;;;;9.20;6.63;;;;;;;;;;5262292;28;20048;-73
2024/01/18 05:53:21;;;;;;;11.13;7.67;;;;;;;;;;5261313;28;20048;-73
2024/01/18 05:55:52;;;;;;;10.43;7.07;;;;;;;;;;5263205;28;20029;-73
2024/01/18 05:58:24;;;;;;;12.50;7.07;;;;;;;;;;5261663;28;20025;-73
2024/01/18 06:00:55;;;;;;;13.27;7.00;;;;;;;;;;5263046;28;20025;-73
2024/01/18 06:03:27;;;;;;;11.37;7.53;;;;;;;;;;5262543;28;20112;-73
2024/01/18 06:05:58;;;;;;;9.47;6.50;;;;;;;;;;5261596;28;20013;-74
2024/01/18 06:08:29;;;;;;;11.40;6.53;;;;;;;;;;5262253;28;20484;-73
2024/01/18 06:11:01;;;;;;;12.57;7.10;;;;;;;;;;5262196;28;20147;-73
2024/01/18 06:13:32;;;;;;;12.77;6.53;;;;;;;;;;5261561;28;20009;-74
2024/01/18 06:16:04;;;;;;;10.43;6.70;;;;;;;;;;5262466;28;20029;-74
2024/01/18 06:18:35;;;;;;;11.57;6.60;;;;;;;;;;5262455;28;20472;-74
2024/01/18 06:21:07;;;;;;;10.77;6.47;;;;;;;;;;5261651;28;20476;-74
2024/01/18 06:23:40;;;;;;;10.10;6.67;;;;;;;;;;5262216;28;20017;-74
2024/01/18 06:26:11;;;;;;;12.03;6.67;;;;;;;;;;5262116;28;20375;-73
2024/01/18 06:28:43;;;;;;;12.03;6.93;;;;;;;;;;5261425;28;20009;-73
2024/01/18 06:31:14;;;;;;;10.47;6.70;;;;;;;;;;5262232;28;20071;-74
2024/01/18 06:33:45;;;;;;;10.93;6.07;;;;;;;;;;5261522;28;20025;-74
2024/01/18 06:36:16;;;;;;;11.37;7.00;;;;;;;;;;5262012;28;20116;-74
2024/01/18 06:38:49;;;;;;;12.30;6.73;;;;;;;;;;5261858;28;20017;-74
2024/01/18 06:41:20;;;;;;;8.57;5.73;;;;;;;;;;5260417;28;20104;-74
2024/01/18 06:43:51;;;;;;;11.40;6.60;;;;;;;;;;5261774;28;20401;-74
2024/01/18 06:46:23;;;;;;;9.47;5.73;;;;;;;;;;5261722;28;20013;-73
2024/01/18 06:48:57;;;;;;;10.47;6.30;;;;;;;;;;5261365;28;20052;-74
2024/01/18 06:51:31;;;;;;;8.77;6.10;;;;;;;;;;5261256;28;20389;-77
2024/01/18 06:54:02;;;;;;;10.37;5.77;;;;;;;;;;5261704;28;20021;-72
2024/01/18 06:56:34;;;;;;;8.63;5.90;;;;;;;;;;5260950;28;20020;-73
2024/01/18 06:59:05;;;;;;;10.30;5.77;;;;;;;;;;5260965;28;20025;-74
2024/01/18 07:01:36;;;;;;;10.23;5.97;;;;;;;;;;5260457;28;20029;-74
2024/01/18 07:04:07;;;;;;;10.53;5.67;;;;;;;;;;5261564;28;20032;-74
2024/01/18 07:06:39;;;;;;;10.17;5.70;;;;;;;;;;5261529;28;20044;-74
2024/01/18 07:09:10;;;;;;;12.10;6.00;;;;;;;;;;5260685;28;20066;-74
2024/01/18 07:11:41;;;;;;;11.87;6.23;;;;;;;;;;5261257;28;20029;-73
2024/01/18 07:14:13;;;;;;;10.37;6.30;;;;;;;;;;5261512;28;20021;-74
2024/01/18 07:16:44;;;;;;;10.03;5.37;;;;;;;;;;5260585;28;20104;-74
2024/01/18 07:19:16;;;;;;;10.70;5.93;;;;;;;;;;5261385;28;20059;-73
2024/01/18 07:21:47;;;;;;;11.83;6.10;;;;;;;;;;5261110;28;20068;-73
2024/01/18 07:24:18;;;;;;;9.77;5.43;;;;;;;;;;5260318;28;20516;-73
2024/01/18 07:26:49;;;;;;;8.93;5.30;;;;;;;;;;5260865;28;20021;-75
2024/01/18 07:29:20;;;;;;;11.97;6.20;;;;;;;;;;5261368;28;20464;-75
2024/01/18 07:31:52;;;;;;;9.40;5.10;;;;;;;;;;5260128;28;20068;-74
2024/01/18 07:34:23;;;;;;;9.63;5.60;;;;;;;;;;5260911;28;20517;-73
2024/01/18 07:36:55;;;;;;;10.37;5.40;;;;;;;;;;5260295;28;20056;-73
2024/01/18 07:39:27;;;;;;;11.23;6.37;;;;;;;;;;5260985;28;20021;-74
2024/01/18 07:42:00;;;;;;;17.13;6.50;;;;;;;;;;5260810;28;20025;-74
2024/01/18 07:44:31;;;;;;;13.57;5.57;;;;;;;;;;5260176;28;20025;-74
2024/01/18 07:47:02;;;;;;;14.03;5.60;;;;;;;;;;5260761;28;20036;-74
2024/01/18 07:49:34;;;;;;;13.60;5.53;;;;;;;;;;5260985;28;20048;-74
2024/01/18 07:52:05;;;;;;;8.90;5.17;;;;;;;;;;5259908;28;20052;-74
2024/01/18 07:54:36;;;;;;;19.07;6.03;;;;;;;;;;5260649;28;20013;-74
2024/01/18 07:57:08;;;;;;;14.50;5.87;;;;;;;;;;5260665;28;20460;-74
2024/01/18 07:59:39;;;;;;;14.77;5.97;;;;;;;;;;5259484;28;20020;-74
2024/01/18 08:02:10;;;;;;;13.67;6.17;;;;;;;;;;5260667;28;20037;-74
2024/01/18 08:04:41;;;;;;;8.77;4.73;;;;;;;;;;5260551;28;20036;-75
2024/01/18 08:07:12;;;;;;;13.03;5.57;;;;;;;;;;5260003;28;20032;-73
2024/01/18 08:09:43;;;;;;;8.77;5.77;;;;;;;;;;5261419;28;20435;-74
2024/01/18 08:12:15;;;;;;;10.90;5.37;;;;;;;;;;5263966;28;20062;-74
2024/01/18 08:14:46;;;;;;;7.27;4.83;;;;;;;;;;5265014;28;20071;-74
2024/01/18 08:17:17;;;;;;;8.47;5.10;;;;;;;;;;5265041;28;20032;-74
2024/01/18 08:19:48;;;;;;;10.63;5.03;;;;;;;;;;5262237;28;20143;-74
2024/01/18 08:22:19;;;;;;;7.70;4.50;;;;;;;;;;5262599;28;20041;-74
2024/01/18 08:24:51;;;;;;;9.43;4.70;;;;;;;;;;5262467;28;20047;-74
2024/01/18 08:27:23;;;;;;;8.27;5.60;;;;;;;;;;5261453;28;20021;-74
2024/01/18 08:29:55;;;;;;;7.47;4.53;;;;;;;;;;5263148;28;20095;-74
2024/01/18 08:32:31;;;;;;;7.10;4.60;;;;;;;;;;5262411;28;20147;-74
2024/01/18 08:35:08;;;;;;;8.70;4.77;;;;;;;;;;5263281;28;20028;-74
2024/01/18 08:37:40;;;;;;;6.80;4.13;;;;;;;;;;5264642;28;20020;-73
2024/01/18 08:40:12;;;;;;;6.70;4.03;;;;;;;;;;5263464;28;20344;-73
2024/01/18 08:42:45;;;;;;;8.47;4.37;;;;;;;;;;5264387;28;20383;-73
2024/01/18 08:45:18;;;;;;;8.83;4.93;;;;;;;;;;5264263;28;20384;-74
2024/01/18 08:47:49;;;;;;;12.00;4.87;;;;;;;;;;5263524;28;20480;-74
2024/01/18 08:50:23;;;;;;;11.10;4.70;;;;;;;;;;5264280;28;20021;-73
2024/01/18 08:52:54;;;;;;;11.80;5.90;;;;;;;;;;5263745;28;20044;-73
2024/01/18 08:55:25;;;;;;;10.80;5.17;;;;;;;;;;5263247;28;20055;-72
2024/01/18 08:57:57;;;;;;;11.10;4.87;;;;;;;;;;5264159;28;20032;-73
2024/01/18 09:00:28;;;;;;;10.37;4.97;;;;;;;;;;5263710;28;20099;-73
2024/01/18 09:03:00;;;;;;;10.43;4.77;;;;;;;;;;5263408;28;20025;-73
2024/01/18 09:05:32;;;;;;;11.40;4.47;;;;;;;;;;5263737;28;20020;-72
2024/01/18 09:08:03;;;;;;;14.93;5.17;;;;;;;;;;5263193;28;20099;-72
2024/01/18 09:10:34;;;;;;;13.70;4.43;;;;;;;;;;5259437;28;20021;-72
2024/01/18 09:13:06;;;;;;;8.17;3.93;;;;;;;;;;5263387;28;20032;-72
2024/01/18 09:15:37;;;;;;;8.23;4.47;;;;;;;;;;5262848;28;20020;-72
2024/01/18 09:18:08;;;;;;;8.50;3.50;;;;;;;;;;5263642;28;20553;-72
2024/01/18 09:20:40;;;;;;;9.83;3.97;;;;;;;;;;5263225;28;20070;-72
2024/01/18 09:23:12;;;;;;;5.47;3.60;;;;;;;;;;5261809;28;20023;-72
2024/01/18 09:25:43;;;;;;;8.90;3.57;;;;;;;;;;5262935;28;20021;-72
2024/01/18 09:28:14;;;;;;;6.20;3.53;;;;;;;;;;5263469;28;20426;-72
2024/01/18 09:30:46;;;;;;;7.67;2.77;;;;;;;;;;5262765;28;20017;-72
2024/01/18 09:33:17;;;;;;;6.50;3.10;;;;;;;;;;5263063;28;20021;-72
2024/01/18 09:35:48;;;;;;;6.73;2.67;;;;;;;;;;5262973;28;20013;-72
2024/01/18 09:38:21;;;;;;;6.93;2.53;;;;;;;;;;5262608;28;20031;-72
2024/01/18 09:40:56;;;;;;;8.80;3.50;;;;;;;;;;5263111;28;20013;-72
2024/01/18 09:43:29;;;;;;;8.97;2.70;;;;;;;;;;5261965;28;20381;-72
2024/01/18 09:46:03;;;;;;;7.40;2.80;;;;;;;;;;5263070;28;20074;-72
2024/01/18 09:48:34;;;;;;;7.50;2.57;;;;;;;;;;5263003;28;20067;-72
2024/01/18 09:51:06;;;;;;;9.30;2.77;;;;;;;;;;5262016;28;20045;-72
2024/01/18 09:53:40;;;;;;;7.47;2.07;;;;;;;;;;5262865;28;20071;-72
2024/01/18 09:56:17;;;;;;;7.73;2.50;;;;;;;;;;5262608;28;20480;-72
2024/01/18 09:58:49;;;;;;;7.03;1.93;;;;;;;;;;5262100;28;20375;-72
2024/01/18 10:01:21;;;;;;;6.57;2.13;;;;;;;;;;5262694;28;20025;-72
2024/01/18 10:03:53;;;;;;;4.10;1.80;;;;;;;;;;5263059;28;20045;-72
2024/01/18 10:06:25;;;;;;;5.07;1.80;;;;;;;;;;5261426;28;20068;-72
2024/01/18 10:08:56;;;;;;;7.40;1.80;;;;;;;;;;5257565;28;20021;-72
2024/01/18 10:11:27;;;;;;;5.33;1.50;;;;;;;;;;5261426;28;20025;-73
2024/01/18 10:13:59;;;;;;;4.67;1.20;;;;;;;;;;5262743;28;20368;-72
2024/01/18 10:16:35;;;;;;;8.00;1.40;;;;;;;;;;5262658;28;20017;-71
2024/01/18 10:19:14;;;;;;;6.73;1.27;;;;;;;;;;5261679;28;20110;-71
2024/01/18 10:21:46;;;;;;;3.55;1.20;;;;;;;;;;5261279;28;20055;-72
2024/01/18 10:24:18;;;;;;;3.23;1.10;;;;;;;;;;5262151;28;20032;-72
2024/01/18 10:27:00;;;;;;;4.27;0.80;;;;;;;;;;5261422;28;20017;-74
2024/01/18 10:29:32;;;;;;;5.47;0.97;;;;;;;;;;5262293;28;20090;-72
2024/01/18 10:32:04;;;;;;;3.27;1.00;;;;;;;;;;5262061;28;20473;-73
2024/01/18 10:34:35;;;;;;;4.30;1.17;;;;;;;;;;5260430;28;20113;-73
2024/01/18 10:37:12;;;;;;;2.20;0.70;;;;;;;;;;5262200;28;20090;-73
2024/01/18 10:39:46;;;;;;;4.67;0.90;;;;;;;;;;5261326;28;20419;-73
2024/01/18 10:42:17;;;;;;;8.17;1.27;;;;;;;;;;5261801;28;20373;-73
2024/01/18 10:44:49;;;;;;;2.23;0.80;;;;;;;;;;5261861;28;20063;-73
2024/01/18 10:47:22;;;;;;;3.77;0.80;;;;;;;;;;5261419;28;20464;-73
2024/01/18 10:49:54;;;;;;;6.90;0.87;;;;;;;;;;5262221;28;20044;-73
2024/01/18 10:52:25;;;;;;;4.20;0.77;;;;;;;;;;5261373;28;20400;-73
2024/01/18 10:54:58;;;;;;;3.23;0.90;;;;;;;;;;5260949;28;20025;-73
2024/01/18 10:57:29;;;;;;;4.53;0.93;;;;;;;;;;5262035;28;20426;-73
2024/01/18 11:00:00;;;;;;;2.57;0.80;;;;;;;;;;5261618;28;20029;-73
2024/01/18 11:02:31;;;;;;;3.27;0.90;;;;;;;;;;5260709;28;20083;-73
2024/01/18 11:05:03;;;;;;;3.13;0.80;;;;;;;;;;5261643;28;20480;-73
2024/01/18 11:07:35;;;;;;;3.00;0.70;;;;;;;;;;5261351;28;20021;-73
2024/01/18 11:10:10;;;;;;;2.50;0.60;;;;;;;;;;5261492;28;20486;-73
2024/01/18 11:12:42;;;;;;;4.43;0.90;;;;;;;;;;5261413;28;20032;-73
2024/01/18 11:15:14;;;;;;;3.47;0.80;;;;;;;;;;5260638;28;20021;-73
2024/01/18 11:17:46;;;;;;;3.73;0.70;;;;;;;;;;5261311;28;20413;-73
2024/01/18 11:20:18;;;;;;;2.67;0.70;;;;;;;;;;5261223;28;20112;-73
2024/01/18 11:22:49;;;;;;;4.00;1.23;;;;;;;;;;5260608;28;20490;-73
2024/01/18 11:25:21;;;;;;;6.57;1.40;;;;;;;;;;5261127;28;20027;-73
2024/01/18 11:27:53;;;;;;;6.20;1.57;;;;;;;;;;5261628;28;20433;-73
2024/01/18 11:30:30;;;;;;;7.40;2.47;;;;;;;;;;5260043;28;20064;-73
2024/01/18 11:33:01;;;;;;;8.40;1.97;;;;;;;;;;5261243;28;20419;-73
2024/01/18 11:35:34;;;;;;;4.40;1.47;;;;;;;;;;5261236;28;20028;-72
2024/01/18 11:38:20;;;;;;;6.27;1.83;;;;;;;;;;5260327;28;20064;-72
2024/01/18 11:40:53;;;;;;;7.43;2.33;;;;;;;;;;5261185;28;20039;-72
2024/01/18 11:43:25;;;;;;;5.67;1.60;;;;;;;;;;5260036;28;20071;-72
2024/01/18 11:45:56;;;;;;;3.60;1.53;;;;;;;;;;5260899;28;20017;-72
2024/01/18 11:48:27;;;;;;;6.53;0.90;;;;;;;;;;5260801;28;20017;-72
2024/01/18 11:50:58;;;;;;;2.73;0.70;;;;;;;;;;5259919;28;20021;-72
2024/01/18 11:53:30;;;;;;;6.13;0.90;;;;;;;;;;5260759;28;20027;-72
2024/01/18 11:56:03;;;;;;;3.50;0.90;;;;;;;;;;5260936;28;20020;-72
2024/01/18 11:58:34;;;;;;;3.33;0.97;;;;;;;;;;5260045;28;20044;-72
2024/01/18 12:01:06;;;;;;;3.13;0.70;;;;;;;;;;5260753;28;20519;-72
2024/01/18 12:03:37;;;;;;;3.13;0.60;;;;;;;;;;5260480;28;20025;-72
2024/01/18 12:06:09;;;;;;;3.87;0.60;;;;;;;;;;5259917;28;20104;-72
2024/01/18 12:08:41;;;;;;;2.10;0.40;;;;;;;;;;5260824;28;20025;-72
2024/01/18 12:11:12;;;;;;;2.67;0.50;;;;;;;;;;5259950;28;20028;-73
2024/01/18 12:13:44;;;;;;;1.30;0.40;;;;;;;;;;5260696;28;20063;-72
2024/01/18 12:16:18;;;;;;;1.67;0.33;;;;;;;;;;5260599;28;20055;-73
2024/01/18 12:18:50;;;;;;;2.37;0.30;;;;;;;;;;5260075;28;20013;-72
2024/01/18 12:21:22;;;;;;;4.83;0.83;;;;;;;;;;5260073;28;20013;-72
2024/01/18 12:23:54;;;;;;;2.57;0.30;;;;;;;;;;5260800;28;20039;-72
2024/01/18 12:26:25;;;;;;;3.60;0.40;;;;;;;;;;5259481;28;20017;-72
2024/01/18 12:28:57;;;;;;;2.77;0.37;;;;;;;;;;5260726;28;20017;-72
2024/01/18 12:31:30;;;;;;;2.40;0.30;;;;;;;;;;5260452;28;20023;-72
2024/01/18 12:34:01;;;;;;;2.27;0.33;;;;;;;;;;5259481;28;20464;-72
2024/01/18 12:36:32;;;;;;;1.83;0.40;;;;;;;;;;5260391;28;20032;-72
2024/01/18 12:39:04;;;;;;;2.73;0.30;;;;;;;;;;5259630;28;20017;-72
2024/01/18 12:41:35;;;;;;;2.73;0.40;;;;;;;;;;5260143;28;20032;-72
2024/01/18 12:44:06;;;;;;;1.63;0.20;;;;;;;;;;5260375;28;20361;-72
2024/01/18 12:46:39;;;;;;;1.47;0.20;;;;;;;;;;5259346;28;20060;-73
2024/01/18 12:49:11;;;;;;;3.70;0.30;;;;;;;;;;5260317;28;20029;-73
2024/01/18 12:51:43;;;;;;;2.00;0.37;;;;;;;;;;5260188;28;20507;-71
2024/01/18 12:54:14;;;;;;;1.40;0.30;;;;;;;;;;5259261;28;20132;-72
2024/01/18 12:56:47;;;;;;;4.20;0.30;;;;;;;;;;5259930;28;20079;-74
2024/01/18 12:59:19;;;;;;;3.83;0.40;;;;;;;;;;5264226;28;20521;-75
2024/01/18 13:01:51;;;;;;;13.53;4.20;;;;;;;;;;5263279;28;20028;-75
2024/01/18 13:04:27;;;;;;;5.23;0.90;;;;;;;;;;5263779;28;20460;-74
2024/01/18 13:06:59;;;;;;;4.25;0.60;;;;;;;;;;5263920;28;20017;-75
2024/01/18 13:09:31;;;;;;;2.53;0.30;;;;;;;;;;5262992;28;20490;-75
2024/01/18 13:12:03;;;;;;;3.17;0.40;;;;;;;;;;5263498;28;20016;-75
2024/01/18 13:14:35;;;;;;;3.03;0.30;;;;;;;;;;5262817;28;20009;-75
2024/01/18 13:17:06;;;;;;;3.63;0.30;;;;;;;;;;5263789;28;20021;-75
2024/01/18 13:19:39;;;;;;;1.02;0.17;;;;;;;;;;5260558;28;20013;-74
2024/01/18 13:22:10;;;;;;;2.30;0.10;;;;;;;;;;5262788;28;20115;-75
2024/01/18 13:24:41;;;;;;;2.55;0.17;;;;;;;;;;5263320;28;20092;-74
2024/01/18 13:27:13;;;;;;;2.92;0.20;;;;;;;;;;5263388;28;20024;-75
2024/01/18 13:29:44;;;;;;;1.57;0.10;;;;;;;;;;5262688;28;20088;-76
2024/01/18 13:32:15;;;;;;;1.33;0.63;;;;;;;;;;5263258;28;20507;-76
2024/01/18 13:34:46;;;;;;;2.43;0.10;;;;;;;;;;5259295;28;20446;-74
2024/01/18 13:37:18;;;;;;;1.27;0.20;;;;;;;;;;5261208;28;20036;-74
2024/01/18 13:39:49;;;;;;;2.00;0.20;;;;;;;;;;5263407;28;20025;-75
2024/01/18 13:42:20;;;;;;;0.55;0.10;;;;;;;;;;5261207;28;20036;-75
2024/01/18 13:44:51;;;;;;;2.63;0.10;;;;;;;;;;5261973;28;20471;-75
2024/01/18 13:47:22;;;;;;;2.70;0.10;;;;;;;;;;5261450;28;20052;-75
2024/01/18 13:49:53;;;;;;;2.42;0.10;;;;;;;;;;5261549;28;20017;-75
2024/01/18 13:52:28;;;;;;;1.63;0.20;;;;;;;;;;5262752;28;20137;-76
2024/01/18 13:54:59;;;;;;;1.20;0.10;;;;;;;;;;5262560;28;20010;-77
2024/01/18 13:57:30;;;;;;;0.93;0.10;;;;;;;;;;5262097;28;20052;-75
2024/01/18 14:00:02;;;;;;;1.03;0.30;;;;;;;;;;5262747;28;20055;-76
2024/01/18 14:02:33;;;;;;;1.83;0.07;;;;;;;;;;5262940;28;20029;-75
2024/01/18 14:05:05;;;;;;;1.66;0.10;;;;;;;;;;5262229;28;20096;-76
2024/01/18 14:07:36;;;;;;;1.45;0.10;;;;;;;;;;5262596;28;20025;-75
2024/01/18 14:10:08;;;;;;;2.03;0.10;;;;;;;;;;5262648;28;20128;-76
2024/01/18 14:12:39;;;;;;;2.90;0.20;;;;;;;;;;5262066;28;20013;-76
2024/01/18 14:15:10;;;;;;;2.90;0.20;;;;;;;;;;5262444;28;20039;-76
2024/01/18 14:17:41;;;;;;;2.45;0.17;;;;;;;;;;5262081;28;20064;-76
2024/01/18 14:20:13;;;;;;;1.07;0.10;;;;;;;;;;5262390;28;20025;-75
2024/01/18 14:22:45;;;;;;;2.03;0.13;;;;;;;;;;5262203;28;20037;-76
2024/01/18 14:25:16;;;;;;;1.13;0.10;;;;;;;;;;5261416;28;20035;-76
2024/01/18 14:27:47;;;;;;;1.80;0.13;;;;;;;;;;5262524;28;20367;-76
2024/01/18 14:30:18;;;;;;;1.70;0.20;;;;;;;;;;5262348;28;20017;-76
2024/01/18 14:32:49;;;;;;;1.20;0.10;;;;;;;;;;5261378;28;20017;-74
2024/01/18 14:35:21;;;;;;;1.38;0.10;;;;;;;;;;5262140;28;20100;-75
2024/01/18 14:37:52;;;;;;;1.07;0.30;;;;;;;;;;5262199;28;20056;-74
2024/01/18 14:40:23;;;;;;;1.15;0.10;;;;;;;;;;5261009;28;20108;-74
2024/01/18 14:42:54;;;;;;;1.07;0.10;;;;;;;;;;5261942;28;20037;-74
2024/01/18 14:45:25;;;;;;;1.04;0.10;;;;;;;;;;5260336;28;20507;-75
2024/01/18 14:48:09;;;;;;;1.90;0.20;;;;;;;;;;5261211;28;20472;-74
2024/01/18 14:50:41;;;;;;;2.90;0.40;;;;;;;;;;5261981;28;20025;-74
2024/01/18 14:53:14;;;;;;;3.57;0.30;;;;;;;;;;5260910;28;20400;-75
2024/01/18 14:55:46;;;;;;;2.70;0.33;;;;;;;;;;5261840;28;20464;-74
2024/01/18 14:58:17;;;;;;;8.37;1.30;;;;;;;;;;5261611;28;20049;-75
2024/01/18 15:00:48;;;;;;;6.20;1.33;;;;;;;;;;5260795;28;20040;-74
2024/01/18 15:03:19;;;;;;;4.63;0.97;;;;;;;;;;5261737;28;20025;-75